Time;durP1;ratioP1;P1;durP2;ratioP2;P2;SDS_P1;SDS_P2;PMS_P1;PMS_P2;Temp;Humidity;BMP_temperature;BMP_pressure;BME280_temperature;BME280_humidity;BME280_pressure;Samples;Min_cycle;Max_cycle;Signal;HPM_P1;HPM_P2
2021/11/12 00:02:09;;;;;;;44.35;28.15;;;;;;;8.20;68.72;99156.59;5092508;28;20040;-51
2021/11/12 00:14:31;;;;;;;57.28;29.60;;;;;;;7.92;68.39;99172.75;5029803;28;20065;-51
2021/11/12 00:16:58;;;;;;;53.17;26.70;;;;;;;7.69;68.48;99166.69;5029676;28;20042;-51
2021/11/12 00:19:24;;;;;;;48.65;25.83;;;;;;;7.57;68.83;99161.81;5029783;28;20037;-51
2021/11/12 00:21:49;;;;;;;39.78;23.98;;;;;;;7.49;69.50;99174.09;5029265;28;20033;-51
2021/11/12 00:24:15;;;;;;;47.25;25.27;;;;;;;7.44;69.44;99168.56;5029645;28;20037;-50
2021/11/12 00:26:41;;;;;;;53.28;24.90;;;;;;;7.29;69.63;99178.88;5029692;28;20506;-51
2021/11/12 00:29:09;;;;;;;42.85;25.42;;;;;;;7.19;70.12;99158.19;5029579;28;20025;-51
2021/11/12 00:37:12;;;;;;;32.97;22.90;;;;;;;7.26;69.67;99146.06;5092195;28;20115;-51
2021/11/12 00:39:51;;;;;;;63.22;23.90;;;;;;;7.32;69.48;99158.44;5091944;28;20021;-51
2021/11/12 00:42:25;;;;;;;182.25;27.08;;;;;;;7.25;69.27;99160.13;5091825;28;20109;-51
2021/11/12 00:47:32;;;;;;;52.42;22.60;;;;;;;7.05;69.90;99151.03;5091792;28;20058;-51
2021/11/12 00:50:56;;;;;;;65.50;22.98;;;;;;;7.32;69.82;99160.25;5091751;28;20073;-51
2021/11/12 00:55:15;;;;;;;40.67;23.00;;;;;;;7.52;68.76;99158.88;5093854;28;20028;-51
2021/11/12 00:57:41;;;;;;;46.53;23.40;;;;;;;7.63;69.75;99157.72;5095885;28;20035;-51
2021/11/12 01:00:09;;;;;;;58.40;26.00;;;;;;;7.53;69.58;99162.31;5095746;28;20048;-51
2021/11/12 01:02:36;;;;;;;46.28;23.92;;;;;;;7.42;69.22;99165.28;5095621;28;20024;-51
2021/11/12 01:05:03;;;;;;;52.03;24.38;;;;;;;7.29;69.34;99158.81;5095659;28;20020;-51
2021/11/12 01:07:29;;;;;;;37.30;23.45;;;;;;;7.21;70.22;99158.81;5095622;28;20028;-50
2021/11/12 01:09:56;;;;;;;41.42;23.63;;;;;;;7.09;70.13;99155.75;5095475;28;20032;-50
2021/11/12 01:12:22;;;;;;;44.63;23.88;;;;;;;7.09;70.72;99157.53;5095523;28;20028;-51
2021/11/12 01:14:47;;;;;;;39.30;23.50;;;;;;;7.15;70.05;99149.84;5095482;28;20449;-51
2021/11/12 01:17:13;;;;;;;48.38;23.67;;;;;;;7.05;70.36;99151.84;5095448;28;20494;-51
2021/11/12 01:19:39;;;;;;;43.80;25.13;;;;;;;7.06;70.30;99152.66;5095392;28;20027;-50
2021/11/12 01:24:50;;;;;;;55.50;22.65;;;;;;;7.19;70.00;99145.13;5095286;28;20513;-51
2021/11/12 01:27:16;;;;;;;70.68;37.58;;;;;;;7.24;69.70;99142.00;5095298;28;20034;-51
2021/11/12 01:29:42;;;;;;;41.85;21.67;;;;;;;7.05;69.07;99148.41;5093884;28;20024;-50
2021/11/12 01:32:26;;;;;;;47.05;23.67;;;;;;;6.82;70.05;99141.25;5095172;28;20028;-51
2021/11/12 01:34:57;;;;;;;38.15;23.02;;;;;;;6.68;70.47;99144.53;5095137;28;20035;-50
2021/11/12 01:37:25;;;;;;;54.50;21.63;;;;;;;6.87;70.49;99140.78;5093747;28;20110;-51
2021/11/12 01:39:59;;;;;;;49.05;21.58;;;;;;;6.96;69.09;99139.78;5095064;28;20020;-50
2021/11/12 01:42:28;;;;;;;35.17;21.98;;;;;;;6.95;69.97;99132.94;5094947;28;20040;-50
2021/11/12 01:45:05;;;;;;;37.53;22.45;;;;;;;7.05;69.81;99123.13;5094871;28;20067;-51
2021/11/12 01:50:04;;;;;;;41.60;21.92;;;;;;;7.15;69.51;99123.75;5094862;28;20494;-51
2021/11/12 01:52:37;;;;;;;36.92;22.45;;;;;;;7.21;68.95;99132.72;5094751;28;20032;-51
2021/11/12 01:55:08;;;;;;;38.55;21.70;;;;;;;7.23;68.59;99135.16;5093382;28;20063;-51
2021/11/12 02:00:06;;;;;;;41.67;22.98;;;;;;;7.19;69.25;99132.06;5094644;28;20059;-51
2021/11/12 02:02:32;;;;;;;39.30;20.90;;;;;;;7.16;69.82;99124.56;5094624;28;20024;-51
2021/11/12 02:04:58;;;;;;;48.33;22.17;;;;;;;7.12;68.66;99118.06;5094795;28;20081;-50
2021/11/12 02:07:24;;;;;;;41.63;25.45;;;;;;;6.98;69.68;99114.31;5092379;28;20112;-50
2021/11/12 02:09:50;;;;;;;36.30;22.27;;;;;;;7.21;69.94;99119.66;5093138;28;20370;-51
2021/11/12 02:14:44;;;;;;;42.08;21.70;;;;;;;7.59;68.07;99109.41;5094370;28;20470;-51
2021/11/12 02:17:17;;;;;;;43.40;23.65;;;;;;;7.43;68.81;99109.50;5094305;28;20422;-51
2021/11/12 02:19:52;;;;;;;70.22;23.30;;;;;;;7.44;69.09;99117.13;5094350;28;20032;-51
2021/11/12 02:22:19;;;;;;;47.35;22.25;;;;;;;7.37;68.91;99103.94;5093908;28;20036;-50
2021/11/12 02:24:51;;;;;;;45.72;23.05;;;;;;;7.27;69.87;99112.97;5094139;28;20048;-51
2021/11/12 02:27:19;;;;;;;42.53;24.73;;;;;;;7.29;70.83;99103.97;5094132;28;20028;-51
2021/11/12 02:29:52;;;;;;;37.20;23.48;;;;;;;7.27;69.75;99098.13;5094110;28;20107;-51
2021/11/12 02:32:23;;;;;;;41.63;22.58;;;;;;;7.27;70.81;99095.50;5094058;28;20024;-51
2021/11/12 02:34:52;;;;;;;34.38;21.92;;;;;;;7.47;70.34;99097.72;5093945;28;20046;-51
2021/11/12 02:37:22;;;;;;;46.15;22.80;;;;;;;7.72;69.84;99082.72;5093923;28;20024;-51
2021/11/12 02:39:50;;;;;;;42.67;22.90;;;;;;;7.89;69.37;99079.03;5093868;28;20020;-50
2021/11/12 02:42:17;;;;;;;53.72;22.60;;;;;;;8.07;68.53;99083.16;5093777;28;20028;-51
2021/11/12 02:44:44;;;;;;;37.83;23.10;;;;;;;7.94;67.96;99073.28;5093795;28;20142;-51
2021/11/12 02:47:12;;;;;;;37.60;22.33;;;;;;;7.80;68.21;99077.44;5093737;28;20031;-50
2021/11/12 02:49:38;;;;;;;37.78;23.40;;;;;;;7.70;68.00;99071.63;5093736;28;20012;-50
2021/11/12 02:52:06;;;;;;;42.20;22.80;;;;;;;7.70;68.26;99075.06;5093593;28;20169;-50
2021/11/12 02:54:32;;;;;;;39.53;21.95;;;;;;;7.62;67.83;99076.91;5093606;28;20390;-51
2021/11/12 02:56:59;;;;;;;45.53;23.30;;;;;;;7.46;67.92;99070.75;5093508;28;20107;-50
2021/11/12 02:59:26;;;;;;;33.78;22.33;;;;;;;7.38;68.21;99069.03;5093501;28;20097;-51
2021/11/12 03:01:52;;;;;;;55.60;21.65;;;;;;;7.43;68.10;99073.75;5093436;28;20035;-50
2021/11/12 03:04:19;;;;;;;42.78;22.80;;;;;;;7.44;68.24;99069.31;5093255;28;20032;-51
2021/11/12 03:06:46;;;;;;;38.95;25.10;;;;;;;7.38;68.27;99068.19;5093350;28;20116;-50
2021/11/12 03:09:12;;;;;;;42.72;21.92;;;;;;;7.30;68.05;99071.66;5093328;28;20016;-51
2021/11/12 03:11:41;;;;;;;34.90;21.52;;;;;;;7.29;68.98;99064.81;5093237;28;20024;-50
2021/11/12 03:14:08;;;;;;;38.90;22.48;;;;;;;7.35;68.56;99058.09;5091854;28;20074;-50
2021/11/12 03:16:34;;;;;;;45.17;21.05;;;;;;;7.33;69.04;99055.66;5093188;28;20035;-51
2021/11/12 03:19:01;;;;;;;37.88;23.02;;;;;;;7.27;69.01;99052.94;5093094;28;20404;-51
2021/11/12 03:21:28;;;;;;;46.53;22.00;;;;;;;7.26;69.29;99064.34;5091778;28;20055;-50
2021/11/12 03:29:16;;;;;;;34.03;21.73;;;;;;;7.35;68.57;99063.34;5092952;28;20496;-51
2021/11/12 03:56:37;;;;;;;34.70;19.20;;;;;;;7.13;69.28;99041.41;5092809;28;20031;-51
2021/11/12 04:01:55;;;;;;;59.80;21.45;;;;;;;7.17;69.30;99034.84;5092434;28;20031;-51
2021/11/12 04:39:56;;;;;;;33.13;20.45;;;;;;;7.42;69.86;99051.22;5049153;28;20091;-50
2021/11/12 05:09:59;;;;;;;43.75;18.17;;;;;;;7.02;68.56;99060.00;5091627;28;20094;-51
2021/11/12 05:12:50;;;;;;;28.85;16.17;;;;;;;6.88;68.67;99054.53;5091613;28;20028;-50
2021/11/12 05:33:41;;;;;;;36.13;15.32;;;;;;;6.88;68.95;99057.13;5091662;28;20022;-50
2021/11/12 05:35:09;;;;;;;27.25;15.13;;;;;;;6.83;68.92;99050.78;5091329;28;20111;-51
2021/11/12 05:45:35;;;;;;;43.92;17.80;;;;;;;6.98;68.72;99052.53;5095061;28;20039;-51
2021/11/12 05:50:57;;;;;;;50.70;17.85;;;;;;;7.00;68.50;99049.75;5094874;28;20061;-51
2021/11/12 05:56:07;;;;;;;27.92;16.20;;;;;;;7.05;67.96;99054.47;5094845;28;19957;-51
2021/11/12 05:58:34;;;;;;;132.10;20.02;;;;;;;6.89;68.55;99058.75;5093396;28;20489;-51
2021/11/12 06:01:00;;;;;;;32.53;16.33;;;;;;;6.75;69.05;99049.00;5094660;28;20045;-51
2021/11/12 06:03:26;;;;;;;27.75;17.35;;;;;;;6.83;69.54;99045.56;5094592;28;20153;-50
2021/11/12 06:05:51;;;;;;;38.60;17.50;;;;;;;7.14;69.52;99053.44;5093302;28;20032;-50
2021/11/12 06:08:17;;;;;;;33.60;18.08;;;;;;;7.28;68.07;99047.50;5093110;28;20486;-51
2021/11/12 06:10:43;;;;;;;42.15;17.42;;;;;;;7.30;67.83;99048.16;5094455;28;20020;-51
2021/11/12 06:13:09;;;;;;;42.33;17.13;;;;;;;7.15;67.94;99042.03;5094462;28;20031;-51
2021/11/12 06:15:35;;;;;;;42.30;18.42;;;;;;;6.86;67.92;99048.66;5094336;28;20398;-51
2021/11/12 06:18:01;;;;;;;32.50;17.15;;;;;;;6.78;69.15;99038.22;5094450;28;20393;-50
2021/11/12 06:20:27;;;;;;;66.15;17.17;;;;;;;6.84;69.31;99040.19;5092950;28;20028;-50
2021/11/12 06:22:53;;;;;;;29.55;17.27;;;;;;;6.85;68.55;99044.41;5093911;28;20055;-50
2021/11/12 06:25:19;;;;;;;51.22;17.70;;;;;;;6.72;68.62;99044.09;5092758;28;20398;-50
2021/11/12 06:27:45;;;;;;;35.35;17.88;;;;;;;6.63;69.20;99039.91;5094163;28;20146;-50
2021/11/12 06:30:12;;;;;;;32.78;16.35;;;;;;;6.83;69.84;99040.34;5094059;28;20592;-51
2021/11/12 06:32:38;;;;;;;33.75;16.83;;;;;;;7.08;69.53;99043.69;5094002;28;20063;-50
2021/11/12 06:35:04;;;;;;;41.25;17.65;;;;;;;7.15;69.34;99045.47;5094046;28;20043;-51
2021/11/12 06:37:30;;;;;;;32.53;16.38;;;;;;;7.16;69.38;99052.31;5093972;28;20024;-51
2021/11/12 06:39:57;;;;;;;97.53;17.95;;;;;;;7.19;69.07;99041.53;5093918;28;20028;-50
2021/11/12 06:42:25;;;;;;;31.13;16.50;;;;;;;7.08;68.33;99049.72;5093794;28;20032;-51
2021/11/12 06:50:12;;;;;;;30.13;16.27;;;;;;;7.18;69.19;99045.13;5094029;28;20035;-51
2021/11/12 06:52:41;;;;;;;35.63;15.48;;;;;;;7.36;68.68;99046.66;5093395;28;20032;-50
2021/11/12 06:55:10;;;;;;;65.88;23.45;;;;;;;7.38;68.34;99053.38;5093654;28;20039;-50
2021/11/12 06:57:36;;;;;;;50.83;14.73;;;;;;;7.37;67.53;99048.31;5093541;28;20047;-51
2021/11/12 07:00:08;;;;;;;44.05;17.33;;;;;;;7.19;68.41;99057.19;5093483;28;20077;-50
2021/11/12 07:02:34;;;;;;;40.42;16.35;;;;;;;7.13;68.38;99064.88;5092290;28;20027;-50
2021/11/12 07:05:00;;;;;;;30.15;15.02;;;;;;;7.16;68.50;99065.38;5092049;28;20020;-51
2021/11/12 07:07:28;;;;;;;30.10;15.35;;;;;;;7.23;68.28;99062.06;5092076;28;20028;-50
2021/11/12 07:09:54;;;;;;;31.08;14.95;;;;;;;7.31;68.23;99073.28;5093317;28;20020;-51
2021/11/12 07:12:20;;;;;;;35.42;18.83;;;;;;;7.37;67.63;99064.78;5091931;28;20027;-50
2021/11/12 07:14:46;;;;;;;27.35;15.68;;;;;;;7.41;68.08;99067.88;5093233;28;20107;-50
2021/11/12 07:17:13;;;;;;;24.70;13.52;;;;;;;7.45;67.13;99077.00;5093187;28;20031;-51
2021/11/12 07:19:39;;;;;;;24.27;13.23;;;;;;;7.53;67.25;99074.34;5093160;28;20027;-51
2021/11/12 07:22:05;;;;;;;28.65;14.73;;;;;;;7.57;66.94;99075.63;5091423;28;20050;-51
2021/11/12 07:24:31;;;;;;;25.10;12.88;;;;;;;7.52;66.46;99074.50;5091741;28;20042;-51
2021/11/12 07:26:58;;;;;;;22.15;12.68;;;;;;;7.46;66.80;99080.41;5092966;28;20396;-51
2021/11/12 07:29:26;;;;;;;24.90;12.63;;;;;;;7.47;67.05;99079.44;5092961;28;20520;-51
2021/11/12 07:31:52;;;;;;;21.05;11.27;;;;;;;7.44;67.21;99071.94;5092905;28;20016;-51
2021/11/12 07:34:18;;;;;;;21.83;11.85;;;;;;;7.47;66.91;99072.41;5092920;28;20024;-51
2021/11/12 07:36:51;;;;;;;18.08;11.52;;;;;;;7.56;66.52;99076.59;5091461;28;20093;-51
2021/11/12 07:39:26;;;;;;;17.70;11.25;;;;;;;7.56;66.27;99081.81;5092868;28;20028;-51
2021/11/12 07:44:37;;;;;;;20.55;11.55;;;;;;;7.43;66.35;99083.38;5092685;28;20036;-51
2021/11/12 07:47:16;;;;;;;21.13;10.48;;;;;;;7.37;66.07;99087.47;5091607;28;20030;-51
2021/11/12 07:49:48;;;;;;;20.15;10.23;;;;;;;7.20;66.72;99084.09;5092545;28;20032;-50
2021/11/12 07:52:16;;;;;;;21.02;9.60;;;;;;;7.34;66.75;99080.78;5092637;28;20090;-51
2021/11/12 07:54:43;;;;;;;133.82;93.93;;;;;;;7.41;66.17;99088.75;5092566;28;20020;-49
2021/11/12 07:57:09;;;;;;;25.50;13.05;;;;;;;7.54;66.88;99075.94;5091187;28;20020;-51
2021/11/12 07:59:36;;;;;;;33.50;20.75;;;;;;;7.66;66.12;99071.16;5092407;28;20032;-51
2021/11/12 08:02:03;;;;;;;21.17;11.60;;;;;;;7.82;66.05;99072.88;5092681;28;20270;-51
2021/11/12 08:04:29;;;;;;;21.83;12.10;;;;;;;7.80;65.44;99075.66;5091643;28;20024;-51
2021/11/12 08:06:56;;;;;;;26.95;12.75;;;;;;;7.90;65.18;99064.97;5092266;28;20152;-51
2021/11/12 08:09:26;;;;;;;32.05;12.27;;;;;;;7.93;65.83;99056.00;5092314;28;20401;-51
2021/11/12 08:11:56;;;;;;;26.20;11.55;;;;;;;7.91;65.87;99064.00;5092444;28;20047;-51
2021/11/12 08:14:26;;;;;;;20.13;13.18;;;;;;;7.92;66.01;99049.13;5091052;28;20451;-51
2021/11/12 08:17:19;;;;;;;19.73;12.48;;;;;;;8.04;65.76;99054.75;5092451;28;20028;-50
2021/11/12 08:22:59;;;;;;;30.95;17.38;;;;;;;7.83;65.40;99069.28;5091770;28;20048;-51
2021/11/12 08:25:40;;;;;;;28.73;13.20;;;;;;;7.74;66.45;99065.06;5091989;28;20044;-51
2021/11/12 08:28:20;;;;;;;24.60;13.32;;;;;;;7.92;65.52;99054.34;5092135;28;20089;-50
2021/11/12 08:38:41;;;;;;;28.75;16.88;;;;;;;7.97;66.64;99046.81;5091954;28;20105;-51
2021/11/12 08:41:13;;;;;;;20.48;13.45;;;;;;;8.12;66.08;99045.06;5091996;28;20153;-51
2021/11/12 08:43:54;;;;;;;29.55;14.05;;;;;;;8.20;65.84;99041.56;5091891;28;20081;-50
2021/11/12 08:46:29;;;;;;;26.27;13.27;;;;;;;8.36;65.20;99038.81;5091842;28;20036;-51
2021/11/12 08:49:06;;;;;;;23.95;12.95;;;;;;;8.43;64.42;99033.72;5091907;28;20093;-50
2021/11/12 08:51:34;;;;;;;27.35;13.15;;;;;;;8.54;64.68;99028.03;5091808;28;20024;-50
2021/11/12 08:54:02;;;;;;;23.65;12.75;;;;;;;8.55;64.41;99026.22;5090429;28;20035;-51
2021/11/12 08:56:29;;;;;;;22.42;11.63;;;;;;;8.55;64.50;99021.84;5091740;28;20020;-51
2021/11/12 08:58:55;;;;;;;21.05;12.00;;;;;;;8.63;64.15;99018.31;5090431;28;20039;-50
2021/11/12 09:01:22;;;;;;;21.67;12.65;;;;;;;8.61;64.25;99020.28;5091747;28;20031;-51
2021/11/12 09:03:49;;;;;;;19.88;11.45;;;;;;;8.66;63.31;99015.34;5090292;28;20042;-50
2021/11/12 09:06:16;;;;;;;21.90;12.85;;;;;;;8.59;63.72;99023.09;5091578;28;20027;-51
2021/11/12 09:08:42;;;;;;;22.77;12.48;;;;;;;8.42;63.86;99024.25;5091572;28;20081;-50
2021/11/12 09:11:09;;;;;;;22.00;11.95;;;;;;;8.44;64.15;99022.25;5091592;28;20528;-51
2021/11/12 09:13:49;;;;;;;15.85;11.30;;;;;;;8.47;63.84;99024.53;5091510;28;20066;-51
2021/11/12 09:16:16;;;;;;;21.02;11.63;;;;;;;8.36;64.15;99027.53;5093424;28;20032;-50
2021/11/12 09:18:49;;;;;;;19.92;11.52;;;;;;;8.25;63.47;99030.56;5095480;28;20031;-50
2021/11/12 09:21:16;;;;;;;21.90;12.75;;;;;;;8.19;64.26;99024.25;5095458;28;20024;-51
2021/11/12 09:23:42;;;;;;;18.35;12.02;;;;;;;8.16;64.37;99030.63;5094882;28;20040;-51
2021/11/12 09:26:09;;;;;;;22.45;13.80;;;;;;;8.30;63.54;99030.88;5095353;28;20036;-51
2021/11/12 09:28:35;;;;;;;20.20;11.88;;;;;;;8.30;63.55;99036.91;5095359;28;20017;-50
2021/11/12 09:31:03;;;;;;;21.58;11.93;;;;;;;8.30;63.94;99038.72;5095303;28;20061;-51
2021/11/12 09:33:29;;;;;;;22.92;13.77;;;;;;;8.22;64.13;99030.94;5095254;28;20028;-51
2021/11/12 09:35:56;;;;;;;41.25;14.73;;;;;;;8.12;64.08;99031.97;5095164;28;20051;-51
2021/11/12 09:38:22;;;;;;;22.15;13.43;;;;;;;8.27;64.49;99020.75;5095180;28;20095;-51
2021/11/12 09:40:48;;;;;;;21.80;13.18;;;;;;;8.42;64.42;99011.16;5095095;28;20023;-51
2021/11/12 09:43:14;;;;;;;21.50;13.27;;;;;;;8.45;63.54;99012.59;5094952;28;20020;-50
2021/11/12 09:45:40;;;;;;;27.33;13.18;;;;;;;8.49;63.99;99001.63;5094956;28;20129;-50
2021/11/12 09:48:09;;;;;;;20.35;12.25;;;;;;;8.54;63.97;98999.28;5094969;28;20031;-50
2021/11/12 09:50:35;;;;;;;29.00;12.95;;;;;;;8.66;63.65;98996.22;5094847;28;20027;-51
2021/11/12 09:53:02;;;;;;;17.95;12.68;;;;;;;8.74;63.37;98990.91;5094901;28;20102;-51
2021/11/12 09:55:30;;;;;;;19.50;12.27;;;;;;;8.80;63.26;99003.25;5094820;28;20030;-51
2021/11/12 09:57:57;;;;;;;23.02;13.68;;;;;;;8.82;62.81;99008.31;5094799;28;20035;-51
2021/11/12 10:00:26;;;;;;;22.55;12.32;;;;;;;8.63;62.49;99001.81;5094732;28;20389;-50
2021/11/12 10:02:53;;;;;;;17.40;12.23;;;;;;;8.60;62.94;99009.00;5094575;28;20020;-51
2021/11/12 10:05:40;;;;;;;21.88;12.50;;;;;;;8.65;62.72;99005.84;5094636;28;20054;-51
2021/11/12 10:08:19;;;;;;;23.90;12.63;;;;;;;8.62;62.61;99011.47;5094626;28;20501;-50
2021/11/12 10:10:50;;;;;;;18.23;11.60;;;;;;;8.55;63.07;98997.47;5094467;28;20055;-51
2021/11/12 10:13:41;;;;;;;23.05;13.00;;;;;;;8.47;63.31;98994.94;5093226;28;20039;-51
2021/11/12 10:16:24;;;;;;;26.75;14.00;;;;;;;8.59;63.27;98993.50;5091420;28;20032;-51
2021/11/12 10:19:12;;;;;;;28.27;14.93;;;;;;;8.74;62.45;99001.38;5094433;28;20016;-51
2021/11/12 10:21:44;;;;;;;22.83;13.80;;;;;;;8.78;62.22;99005.25;5094308;28;20020;-51
2021/11/12 10:24:17;;;;;;;28.90;14.27;;;;;;;8.83;62.32;98996.84;5094115;28;20040;-51
2021/11/12 10:26:56;;;;;;;29.83;13.75;;;;;;;8.83;62.74;98996.84;5094070;28;20070;-51
2021/11/12 10:29:26;;;;;;;24.20;13.30;;;;;;;8.75;61.99;98992.50;5092611;28;20043;-52
2021/11/12 10:32:05;;;;;;;24.40;13.52;;;;;;;8.67;62.63;98980.34;5094120;28;20485;-52
2021/11/12 10:34:35;;;;;;;20.67;14.90;;;;;;;8.60;61.88;98977.63;5094106;28;20524;-51
2021/11/12 10:37:03;;;;;;;21.77;13.50;;;;;;;8.49;62.85;98985.09;5094026;28;20024;-52
2021/11/12 10:39:36;;;;;;;23.17;13.93;;;;;;;8.43;62.52;98983.19;5094229;28;20027;-51
2021/11/12 10:42:06;;;;;;;27.88;13.60;;;;;;;8.51;63.83;98976.09;5092604;28;20054;-52
2021/11/12 10:44:39;;;;;;;26.25;12.55;;;;;;;8.72;63.07;98978.00;5092527;28;20028;-52
2021/11/12 10:47:06;;;;;;;26.95;14.30;;;;;;;8.89;63.51;98975.97;5093879;28;20036;-52
2021/11/12 10:49:35;;;;;;;20.73;13.63;;;;;;;8.97;62.91;98981.16;5093802;28;20417;-52
2021/11/12 10:52:10;;;;;;;20.77;13.07;;;;;;;8.99;63.32;98973.91;5093757;28;20024;-52
2021/11/12 10:54:49;;;;;;;28.33;13.82;;;;;;;9.30;62.49;98964.19;5093674;28;20032;-52
2021/11/12 10:57:16;;;;;;;24.70;13.98;;;;;;;9.65;62.13;98959.09;5093672;28;20032;-52
2021/11/12 10:59:58;;;;;;;22.17;13.20;;;;;;;9.99;61.53;98951.31;5093549;28;20016;-52
2021/11/12 11:02:39;;;;;;;23.15;13.02;;;;;;;10.25;60.65;98951.72;5093453;28;20024;-52
2021/11/12 11:05:11;;;;;;;27.27;14.88;;;;;;;10.51;60.00;98956.34;5093783;28;20508;-53
2021/11/12 11:07:39;;;;;;;18.90;13.07;;;;;;;10.54;59.28;98961.19;5093488;28;20049;-52
2021/11/12 11:10:19;;;;;;;21.33;14.38;;;;;;;10.34;59.01;98955.84;5093365;28;20024;-52
2021/11/12 11:12:45;;;;;;;20.90;15.52;;;;;;;10.12;59.58;98961.13;5093348;28;20028;-52
2021/11/12 11:15:31;;;;;;;19.52;13.02;;;;;;;9.97;59.96;98960.38;5093247;28;20032;-52
2021/11/12 11:18:07;;;;;;;19.90;14.27;;;;;;;9.88;60.06;98958.88;5093269;28;20023;-52
2021/11/12 11:20:34;;;;;;;32.28;13.98;;;;;;;9.83;60.78;98958.66;5093188;28;20035;-52
2021/11/12 11:23:01;;;;;;;32.47;13.90;;;;;;;9.99;60.17;98966.25;5091526;28;20070;-52
2021/11/12 11:25:29;;;;;;;32.67;14.20;;;;;;;9.98;60.25;98960.19;5093058;28;20020;-51
2021/11/12 11:27:57;;;;;;;31.83;17.92;;;;;;;10.04;59.85;98958.63;5093047;28;20110;-52
2021/11/12 11:30:24;;;;;;;35.55;14.68;;;;;;;9.96;59.95;98948.25;5092944;28;20573;-51
2021/11/12 11:32:50;;;;;;;26.50;14.73;;;;;;;9.91;59.93;98953.28;5091622;28;20409;-52
2021/11/12 11:35:19;;;;;;;28.73;14.85;;;;;;;9.88;59.97;98951.00;5092883;28;20519;-53
2021/11/12 11:37:45;;;;;;;22.85;14.48;;;;;;;9.84;60.34;98950.59;5092858;28;20026;-52
2021/11/12 11:40:14;;;;;;;26.70;13.88;;;;;;;9.89;60.61;98950.03;5091777;28;20021;-53
2021/11/12 11:42:44;;;;;;;23.48;15.27;;;;;;;9.89;60.05;98958.69;5092670;28;20020;-52
2021/11/12 11:45:15;;;;;;;30.27;15.13;;;;;;;9.79;60.45;98959.00;5092697;28;20031;-52
2021/11/12 11:47:46;;;;;;;28.10;15.57;;;;;;;9.99;60.27;98958.38;5092723;28;20031;-53
2021/11/12 11:50:29;;;;;;;25.52;14.75;;;;;;;10.02;59.89;98950.16;5091352;28;20518;-52
2021/11/12 11:53:24;;;;;;;34.33;14.88;;;;;;;10.03;59.83;98940.47;5092649;28;20039;-53
2021/11/12 11:55:52;;;;;;;55.00;19.17;;;;;;;10.07;60.06;98944.31;5089710;28;20484;-52
2021/11/12 11:58:41;;;;;;;24.20;15.40;;;;;;;10.16;59.49;98944.00;5091141;28;20511;-52
2021/11/12 12:01:16;;;;;;;24.10;13.68;;;;;;;10.14;59.34;98948.63;5092427;28;20564;-52
2021/11/12 12:03:47;;;;;;;28.90;13.98;;;;;;;10.15;59.20;98944.19;5092338;28;20099;-52
2021/11/12 12:06:18;;;;;;;20.35;14.68;;;;;;;10.23;59.17;98948.47;5092355;28;20115;-52
2021/11/12 12:09:09;;;;;;;26.10;14.65;;;;;;;10.08;59.12;98949.38;5091004;28;20020;-53
2021/11/12 12:11:50;;;;;;;31.63;17.70;;;;;;;9.96;59.62;98935.16;5092309;28;20512;-52
2021/11/12 12:14:18;;;;;;;53.25;16.40;;;;;;;9.93;59.80;98941.59;5090918;28;20036;-52
2021/11/12 12:17:23;;;;;;;27.85;14.43;;;;;;;10.13;59.57;98936.50;5092212;28;20012;-53
2021/11/12 12:34:08;;;;;;;25.45;15.77;;;;;;;10.08;59.02;98930.19;5092054;28;20092;-53
2021/11/12 13:22:42;;;;;;;19.90;14.75;;;;;;;12.23;53.54;98885.94;5095201;28;20410;-53
2021/11/12 13:25:27;;;;;;;20.63;14.90;;;;;;;12.31;53.65;98883.88;5095500;28;20378;-53
2021/11/12 13:28:08;;;;;;;21.67;15.68;;;;;;;12.18;53.44;98876.03;5095491;28;20039;-52
2021/11/12 13:30:33;;;;;;;18.88;15.18;;;;;;;12.43;53.89;98870.09;5095345;28;20024;-52
2021/11/12 13:33:00;;;;;;;19.83;14.90;;;;;;;12.90;52.93;98858.38;5095357;28;20486;-53
2021/11/12 13:35:35;;;;;;;20.25;15.45;;;;;;;13.15;52.30;98855.78;5093945;28;20452;-53
2021/11/12 13:38:03;;;;;;;24.35;16.58;;;;;;;13.29;51.45;98863.59;5095345;28;20401;-53
2021/11/12 13:40:35;;;;;;;23.98;15.43;;;;;;;13.55;51.54;98860.00;5095406;28;20028;-53
2021/11/12 13:43:02;;;;;;;20.55;15.07;;;;;;;13.78;49.87;98851.47;5095036;28;20107;-53
2021/11/12 13:45:29;;;;;;;20.90;17.00;;;;;;;13.72;49.71;98852.34;5095027;28;20020;-53
2021/11/12 13:48:09;;;;;;;21.77;18.73;;;;;;;13.11;49.63;98853.78;5095001;28;20028;-52
2021/11/12 13:50:37;;;;;;;21.25;18.45;;;;;;;12.42;51.31;98850.88;5094970;28;20020;-52
2021/11/12 13:53:04;;;;;;;22.83;17.05;;;;;;;11.98;52.09;98858.47;5094950;28;20035;-53
2021/11/12 13:55:34;;;;;;;21.35;18.50;;;;;;;11.91;52.32;98857.69;5093494;28;20119;-53
2021/11/12 13:58:04;;;;;;;22.33;17.50;;;;;;;11.75;53.02;98850.16;5094888;28;20070;-53
2021/11/12 14:00:30;;;;;;;22.98;18.38;;;;;;;11.63;53.53;98847.38;5094721;28;20024;-52
2021/11/12 14:03:10;;;;;;;25.05;19.55;;;;;;;11.65;53.60;98840.09;5093540;28;20036;-52
2021/11/12 14:05:39;;;;;;;26.92;18.88;;;;;;;11.51;53.55;98844.53;5093393;28;20066;-53
2021/11/12 14:08:13;;;;;;;21.02;17.67;;;;;;;11.25;54.56;98839.25;5094680;28;20438;-52
2021/11/12 14:10:45;;;;;;;27.17;19.52;;;;;;;10.99;55.04;98840.84;5093274;28;20031;-53
2021/11/12 14:13:15;;;;;;;32.58;21.45;;;;;;;10.75;56.11;98835.13;5094509;28;20036;-53
2021/11/12 14:16:09;;;;;;;24.58;17.23;;;;;;;10.46;57.15;98835.41;5094488;28;20024;-52
2021/11/12 14:19:01;;;;;;;25.65;18.83;;;;;;;10.34;57.37;98838.63;5094480;28;20024;-53
2021/11/12 14:21:37;;;;;;;25.10;19.83;;;;;;;10.25;57.52;98834.50;5093084;28;20558;-53
2021/11/12 14:32:50;;;;;;;32.53;19.05;;;;;;;10.47;58.85;98845.72;5094160;28;20046;-52
2021/11/12 14:49:20;;;;;;;30.13;22.00;;;;;;;9.75;60.48;98820.69;5093852;28;20028;-53
2021/11/12 14:52:04;;;;;;;;;;;;;;;9.67;60.30;98816.38;5094267;28;20444;-53
2021/11/12 14:54:40;;;;;;;33.67;23.30;;;;;;;9.55;61.05;98821.34;5093772;28;19915;-53
2021/11/12 14:57:30;;;;;;;;;;;;;;;9.64;61.10;98821.19;5094135;28;20440;-52
2021/11/12 14:59:59;;;;;;;34.83;22.27;;;;;;;9.79;60.79;98827.97;5093152;28;20458;-53
2021/11/12 15:02:29;;;;;;;42.15;22.67;;;;;;;9.96;61.31;98828.50;5093503;28;20032;-52
2021/11/12 15:04:56;;;;;;;31.55;22.00;;;;;;;10.14;60.36;98833.22;5093662;28;20081;-52
2021/11/12 15:07:26;;;;;;;33.00;22.35;;;;;;;9.97;60.19;98837.16;5093439;28;20020;-53
2021/11/12 15:09:52;;;;;;;29.38;23.15;;;;;;;9.71;60.38;98833.34;5093476;28;20056;-53
2021/11/12 15:12:20;;;;;;;34.17;23.25;;;;;;;9.54;61.64;98838.06;5092044;28;20024;-52
2021/11/12 15:14:50;;;;;;;32.70;22.08;;;;;;;9.49;61.27;98839.63;5091740;28;20035;-53
2021/11/12 15:17:16;;;;;;;29.08;21.27;;;;;;;9.44;61.56;98837.59;5093240;28;20038;-52
2021/11/12 15:19:45;;;;;;;30.50;21.00;;;;;;;9.38;61.60;98844.41;5091925;28;20382;-52
2021/11/12 15:22:42;;;;;;;33.70;20.30;;;;;;;9.32;61.73;98855.63;5092927;28;20119;-53
2021/11/12 15:25:46;;;;;;;33.80;20.92;;;;;;;9.34;62.14;98858.88;5093123;28;20024;-52
2021/11/12 15:28:13;;;;;;;25.08;18.70;;;;;;;9.31;61.86;98864.47;5090807;28;20450;-52
2021/11/12 15:30:45;;;;;;;26.80;19.45;;;;;;;9.35;62.13;98864.91;5093107;28;20485;-52
2021/11/12 15:33:15;;;;;;;28.67;20.98;;;;;;;9.35;62.02;98857.06;5093013;28;20024;-53
2021/11/12 15:35:41;;;;;;;29.73;21.13;;;;;;;9.12;62.25;98854.63;5092982;28;20099;-52
2021/11/12 15:41:18;;;;;;;29.75;19.83;;;;;;;8.86;63.09;98853.34;5092869;28;20073;-52
2021/11/12 15:43:56;;;;;;;27.65;20.30;;;;;;;8.74;63.26;98866.09;5091467;28;20501;-52
2021/11/12 15:46:24;;;;;;;35.15;21.73;;;;;;;8.57;63.79;98856.84;5092772;28;20020;-51
2021/11/12 15:48:50;;;;;;;47.45;33.17;;;;;;;8.44;64.59;98859.31;5091359;28;20069;-52
2021/11/12 15:51:28;;;;;;;37.17;22.88;;;;;;;8.40;64.57;98862.25;5092600;28;20626;-52
2021/11/12 15:54:17;;;;;;;35.35;22.48;;;;;;;8.44;64.69;98854.06;5092664;28;20028;-52
2021/11/12 15:57:14;;;;;;;31.73;20.15;;;;;;;8.64;64.95;98862.16;5092574;28;20024;-53
2021/11/12 16:05:56;;;;;;;29.63;20.38;;;;;;;9.18;63.67;98864.34;4971225;28;20043;-53
2021/11/12 16:13:39;;;;;;;29.20;19.73;;;;;;;9.85;61.80;98862.28;4971194;28;20026;-53
2021/11/12 16:19:14;;;;;;;27.42;20.10;;;;;;;9.81;63.12;98867.09;4971422;28;20070;-53